sensor_id;sensor_type;location;lat;lon;timestamp;temperature;humidity
63875;DHT22;51595;24.180;-110.296;2023-09-19T00:00:35;37.50;91.40
63875;DHT22;51595;24.180;-110.296;2023-09-19T00:03:02;37.40;91.90
63875;DHT22;51595;24.180;-110.296;2023-09-19T00:05:29;37.50;92.10
63875;DHT22;51595;24.180;-110.296;2023-09-19T00:07:57;37.40;89.60
63875;DHT22;51595;24.180;-110.296;2023-09-19T00:10:27;36.90;90.40
63875;DHT22;51595;24.180;-110.296;2023-09-19T00:12:59;36.60;90.20
63875;DHT22;51595;24.180;-110.296;2023-09-19T00:15:36;36.20;90.60
63875;DHT22;51595;24.180;-110.296;2023-09-19T00:18:04;36.10;90.70
63875;DHT22;51595;24.180;-110.296;2023-09-19T00:20:36;36.20;90.90
63875;DHT22;51595;24.180;-110.296;2023-09-19T00:23:03;36.30;90.60
63875;DHT22;51595;24.180;-110.296;2023-09-19T00:25:37;36.10;90.70
63875;DHT22;51595;24.180;-110.296;2023-09-19T00:28:04;36.10;91.00
63875;DHT22;51595;24.180;-110.296;2023-09-19T00:30:33;36.00;90.90
63875;DHT22;51595;24.180;-110.296;2023-09-19T00:32:59;35.80;90.50
63875;DHT22;51595;24.180;-110.296;2023-09-19T00:35:27;35.70;90.70
63875;DHT22;51595;24.180;-110.296;2023-09-19T00:37:59;35.50;91.70
63875;DHT22;51595;24.180;-110.296;2023-09-19T00:40:30;35.40;91.40
63875;DHT22;51595;24.180;-110.296;2023-09-19T00:42:59;35.20;91.30
63875;DHT22;51595;24.180;-110.296;2023-09-19T00:45:26;35.00;91.60
63875;DHT22;51595;24.180;-110.296;2023-09-19T00:47:52;35.00;91.60
63875;DHT22;51595;24.180;-110.296;2023-09-19T00:50:21;34.80;91.70
63875;DHT22;51595;24.180;-110.296;2023-09-19T00:52:49;34.60;92.00
63875;DHT22;51595;24.180;-110.296;2023-09-19T00:55:17;34.40;92.20
63875;DHT22;51595;24.180;-110.296;2023-09-19T00:57:46;34.20;92.70
63875;DHT22;51595;24.180;-110.296;2023-09-19T01:00:14;34.20;93.10
63875;DHT22;51595;24.180;-110.296;2023-09-19T01:02:44;34.20;93.50
63875;DHT22;51595;24.180;-110.296;2023-09-19T01:05:12;34.20;93.70
63875;DHT22;51595;24.180;-110.296;2023-09-19T01:07:38;34.20;93.80
63875;DHT22;51595;24.180;-110.296;2023-09-19T01:10:12;34.00;94.20
63875;DHT22;51595;24.180;-110.296;2023-09-19T01:18:33;33.30;95.80
63875;DHT22;51595;24.180;-110.296;2023-09-19T01:21:41;33.20;96.20
63875;DHT22;51595;24.180;-110.296;2023-09-19T01:29:44;32.90;99.60
63875;DHT22;51595;24.180;-110.296;2023-09-19T01:32:13;32.90;99.70
63875;DHT22;51595;24.180;-110.296;2023-09-19T01:34:58;32.80;99.90
63875;DHT22;51595;24.180;-110.296;2023-09-19T01:37:30;32.70;99.90
63875;DHT22;51595;24.180;-110.296;2023-09-19T01:40:06;32.70;99.90
63875;DHT22;51595;24.180;-110.296;2023-09-19T01:45:58;32.70;99.90
63875;DHT22;51595;24.180;-110.296;2023-09-19T01:49:27;32.60;99.90
63875;DHT22;51595;24.180;-110.296;2023-09-19T01:54:41;32.10;99.90
63875;DHT22;51595;24.180;-110.296;2023-09-19T01:59:57;31.90;99.90
63875;DHT22;51595;24.180;-110.296;2023-09-19T02:02:26;31.80;99.90
63875;DHT22;51595;24.180;-110.296;2023-09-19T02:04:55;31.70;99.90
63875;DHT22;51595;24.180;-110.296;2023-09-19T02:07:22;31.70;99.90
63875;DHT22;51595;24.180;-110.296;2023-09-19T02:09:49;31.70;99.90
63875;DHT22;51595;24.180;-110.296;2023-09-19T02:12:16;31.50;99.90
63875;DHT22;51595;24.180;-110.296;2023-09-19T02:14:42;31.50;99.90
63875;DHT22;51595;24.180;-110.296;2023-09-19T02:17:09;31.50;99.90
63875;DHT22;51595;24.180;-110.296;2023-09-19T02:19:38;31.50;99.90
63875;DHT22;51595;24.180;-110.296;2023-09-19T02:22:07;31.30;99.90
63875;DHT22;51595;24.180;-110.296;2023-09-19T02:24:34;31.20;99.90
63875;DHT22;51595;24.180;-110.296;2023-09-19T02:27:01;31.20;99.90
63875;DHT22;51595;24.180;-110.296;2023-09-19T02:29:30;31.20;99.90
63875;DHT22;51595;24.180;-110.296;2023-09-19T02:31:57;31.20;99.90
63875;DHT22;51595;24.180;-110.296;2023-09-19T02:34:23;31.20;99.90
63875;DHT22;51595;24.180;-110.296;2023-09-19T02:36:51;31.10;99.90
63875;DHT22;51595;24.180;-110.296;2023-09-19T02:39:22;31.10;99.90
63875;DHT22;51595;24.180;-110.296;2023-09-19T02:41:49;30.90;99.90
63875;DHT22;51595;24.180;-110.296;2023-09-19T02:44:16;30.80;99.90
63875;DHT22;51595;24.180;-110.296;2023-09-19T02:46:42;30.70;99.90
63875;DHT22;51595;24.180;-110.296;2023-09-19T02:49:09;30.60;99.90
63875;DHT22;51595;24.180;-110.296;2023-09-19T02:51:35;30.50;99.90
63875;DHT22;51595;24.180;-110.296;2023-09-19T02:54:02;30.40;99.90
63875;DHT22;51595;24.180;-110.296;2023-09-19T02:56:31;30.40;99.90
63875;DHT22;51595;24.180;-110.296;2023-09-19T02:58:58;30.30;99.90
63875;DHT22;51595;24.180;-110.296;2023-09-19T03:01:26;30.30;99.90
63875;DHT22;51595;24.180;-110.296;2023-09-19T03:03:54;30.20;99.90
63875;DHT22;51595;24.180;-110.296;2023-09-19T03:06:21;30.20;99.90
63875;DHT22;51595;24.180;-110.296;2023-09-19T03:08:48;30.20;99.90
63875;DHT22;51595;24.180;-110.296;2023-09-19T03:11:18;30.10;99.90
63875;DHT22;51595;24.180;-110.296;2023-09-19T03:13:53;30.10;99.90
63875;DHT22;51595;24.180;-110.296;2023-09-19T03:16:19;30.10;99.90
63875;DHT22;51595;24.180;-110.296;2023-09-19T03:18:49;30.10;99.90
63875;DHT22;51595;24.180;-110.296;2023-09-19T03:21:18;30.10;99.90
63875;DHT22;51595;24.180;-110.296;2023-09-19T03:23:45;30.10;99.90
63875;DHT22;51595;24.180;-110.296;2023-09-19T03:26:20;30.00;99.90
63875;DHT22;51595;24.180;-110.296;2023-09-19T03:28:47;30.10;99.90
63875;DHT22;51595;24.180;-110.296;2023-09-19T03:31:13;30.00;99.90
63875;DHT22;51595;24.180;-110.296;2023-09-19T03:33:40;30.00;99.90
63875;DHT22;51595;24.180;-110.296;2023-09-19T03:36:06;29.90;99.90
63875;DHT22;51595;24.180;-110.296;2023-09-19T03:38:33;30.00;99.90
63875;DHT22;51595;24.180;-110.296;2023-09-19T03:41:01;29.90;99.90
63875;DHT22;51595;24.180;-110.296;2023-09-19T03:43:28;29.90;99.90
63875;DHT22;51595;24.180;-110.296;2023-09-19T03:45:54;30.00;99.90
63875;DHT22;51595;24.180;-110.296;2023-09-19T03:48:21;29.90;99.90
63875;DHT22;51595;24.180;-110.296;2023-09-19T03:50:48;30.00;99.90
63875;DHT22;51595;24.180;-110.296;2023-09-19T03:53:14;29.90;99.90
63875;DHT22;51595;24.180;-110.296;2023-09-19T03:55:41;29.80;99.90
63875;DHT22;51595;24.180;-110.296;2023-09-19T03:58:07;29.80;99.90
63875;DHT22;51595;24.180;-110.296;2023-09-19T04:00:34;29.70;99.90
63875;DHT22;51595;24.180;-110.296;2023-09-19T04:03:00;29.70;99.90
63875;DHT22;51595;24.180;-110.296;2023-09-19T04:05:31;29.60;99.90
63875;DHT22;51595;24.180;-110.296;2023-09-19T04:07:59;29.60;99.90
63875;DHT22;51595;24.180;-110.296;2023-09-19T04:10:26;29.50;99.90
63875;DHT22;51595;24.180;-110.296;2023-09-19T04:12:53;29.40;99.90
63875;DHT22;51595;24.180;-110.296;2023-09-19T04:15:20;29.50;99.90
63875;DHT22;51595;24.180;-110.296;2023-09-19T04:17:50;29.50;99.90
63875;DHT22;51595;24.180;-110.296;2023-09-19T04:20:20;29.60;99.90
63875;DHT22;51595;24.180;-110.296;2023-09-19T04:22:49;29.50;99.90
63875;DHT22;51595;24.180;-110.296;2023-09-19T04:25:15;29.30;99.90
63875;DHT22;51595;24.180;-110.296;2023-09-19T04:27:43;29.20;99.90
63875;DHT22;51595;24.180;-110.296;2023-09-19T04:30:10;29.20;99.90
63875;DHT22;51595;24.180;-110.296;2023-09-19T04:32:41;29.20;99.90
63875;DHT22;51595;24.180;-110.296;2023-09-19T04:35:08;29.10;99.90
63875;DHT22;51595;24.180;-110.296;2023-09-19T04:37:40;29.20;99.90
63875;DHT22;51595;24.180;-110.296;2023-09-19T04:40:08;29.10;99.90
63875;DHT22;51595;24.180;-110.296;2023-09-19T04:42:44;29.10;99.90
63875;DHT22;51595;24.180;-110.296;2023-09-19T04:45:11;29.10;99.90
63875;DHT22;51595;24.180;-110.296;2023-09-19T04:47:38;29.00;99.90
63875;DHT22;51595;24.180;-110.296;2023-09-19T04:50:07;28.90;99.90
63875;DHT22;51595;24.180;-110.296;2023-09-19T04:52:34;28.90;99.90
63875;DHT22;51595;24.180;-110.296;2023-09-19T04:55:00;28.90;99.90
63875;DHT22;51595;24.180;-110.296;2023-09-19T04:57:27;28.90;99.90
63875;DHT22;51595;24.180;-110.296;2023-09-19T04:59:54;28.90;99.90
63875;DHT22;51595;24.180;-110.296;2023-09-19T05:02:20;29.00;99.90
63875;DHT22;51595;24.180;-110.296;2023-09-19T05:04:47;29.00;99.90
63875;DHT22;51595;24.180;-110.296;2023-09-19T05:07:14;29.00;99.90
63875;DHT22;51595;24.180;-110.296;2023-09-19T05:09:40;28.90;99.90
63875;DHT22;51595;24.180;-110.296;2023-09-19T05:12:08;28.90;99.90
63875;DHT22;51595;24.180;-110.296;2023-09-19T05:14:36;28.90;99.90
63875;DHT22;51595;24.180;-110.296;2023-09-19T05:17:03;28.90;99.90
63875;DHT22;51595;24.180;-110.296;2023-09-19T05:19:30;28.90;99.90
63875;DHT22;51595;24.180;-110.296;2023-09-19T05:21:56;28.90;99.90
63875;DHT22;51595;24.180;-110.296;2023-09-19T05:24:22;28.80;99.90
63875;DHT22;51595;24.180;-110.296;2023-09-19T05:26:49;28.80;99.90
63875;DHT22;51595;24.180;-110.296;2023-09-19T05:29:16;28.70;99.90
63875;DHT22;51595;24.180;-110.296;2023-09-19T05:31:42;28.70;99.90
63875;DHT22;51595;24.180;-110.296;2023-09-19T05:34:09;28.70;99.90
63875;DHT22;51595;24.180;-110.296;2023-09-19T05:36:35;28.70;99.90
63875;DHT22;51595;24.180;-110.296;2023-09-19T05:39:02;28.60;99.90
63875;DHT22;51595;24.180;-110.296;2023-09-19T05:41:29;28.60;99.90
63875;DHT22;51595;24.180;-110.296;2023-09-19T05:43:56;28.50;99.90
63875;DHT22;51595;24.180;-110.296;2023-09-19T05:46:22;28.60;99.90
63875;DHT22;51595;24.180;-110.296;2023-09-19T05:48:49;28.60;99.90
63875;DHT22;51595;24.180;-110.296;2023-09-19T05:51:16;28.50;99.90
63875;DHT22;51595;24.180;-110.296;2023-09-19T05:53:43;28.40;99.90
63875;DHT22;51595;24.180;-110.296;2023-09-19T05:56:10;28.40;99.90
63875;DHT22;51595;24.180;-110.296;2023-09-19T05:58:37;28.40;99.90
63875;DHT22;51595;24.180;-110.296;2023-09-19T06:01:04;28.30;99.90
63875;DHT22;51595;24.180;-110.296;2023-09-19T06:03:33;28.30;99.90
63875;DHT22;51595;24.180;-110.296;2023-09-19T06:06:02;28.20;99.90
63875;DHT22;51595;24.180;-110.296;2023-09-19T06:08:28;28.20;99.90
63875;DHT22;51595;24.180;-110.296;2023-09-19T06:10:57;28.20;99.90
63875;DHT22;51595;24.180;-110.296;2023-09-19T06:13:23;28.10;99.90
63875;DHT22;51595;24.180;-110.296;2023-09-19T06:15:52;28.10;99.90
63875;DHT22;51595;24.180;-110.296;2023-09-19T06:18:20;27.90;99.90
63875;DHT22;51595;24.180;-110.296;2023-09-19T06:20:47;28.00;99.90
63875;DHT22;51595;24.180;-110.296;2023-09-19T06:23:16;27.90;99.90
63875;DHT22;51595;24.180;-110.296;2023-09-19T06:25:46;27.90;99.90
63875;DHT22;51595;24.180;-110.296;2023-09-19T06:28:13;27.90;99.90
63875;DHT22;51595;24.180;-110.296;2023-09-19T06:30:43;27.90;99.90
63875;DHT22;51595;24.180;-110.296;2023-09-19T06:33:10;27.80;99.90
63875;DHT22;51595;24.180;-110.296;2023-09-19T06:35:38;27.80;99.90
63875;DHT22;51595;24.180;-110.296;2023-09-19T06:38:05;27.80;99.90
63875;DHT22;51595;24.180;-110.296;2023-09-19T06:40:33;27.70;99.90
63875;DHT22;51595;24.180;-110.296;2023-09-19T06:43:00;27.70;99.90
63875;DHT22;51595;24.180;-110.296;2023-09-19T06:45:28;27.70;99.90
63875;DHT22;51595;24.180;-110.296;2023-09-19T06:47:54;27.70;99.90
63875;DHT22;51595;24.180;-110.296;2023-09-19T06:50:24;27.70;99.90
63875;DHT22;51595;24.180;-110.296;2023-09-19T06:52:52;27.70;99.90
63875;DHT22;51595;24.180;-110.296;2023-09-19T06:55:21;27.70;99.90
63875;DHT22;51595;24.180;-110.296;2023-09-19T06:57:49;27.70;99.90
63875;DHT22;51595;24.180;-110.296;2023-09-19T07:00:16;27.70;99.90
63875;DHT22;51595;24.180;-110.296;2023-09-19T07:03:01;27.70;99.90
63875;DHT22;51595;24.180;-110.296;2023-09-19T07:05:30;27.70;99.90
63875;DHT22;51595;24.180;-110.296;2023-09-19T07:07:57;27.70;99.90
63875;DHT22;51595;24.180;-110.296;2023-09-19T07:10:25;27.60;99.90
63875;DHT22;51595;24.180;-110.296;2023-09-19T07:13:06;27.70;99.90
63875;DHT22;51595;24.180;-110.296;2023-09-19T07:15:35;27.60;99.90
63875;DHT22;51595;24.180;-110.296;2023-09-19T07:18:02;27.50;99.90
63875;DHT22;51595;24.180;-110.296;2023-09-19T07:20:29;27.50;99.90
63875;DHT22;51595;24.180;-110.296;2023-09-19T07:22:58;27.50;99.90
63875;DHT22;51595;24.180;-110.296;2023-09-19T07:25:30;27.50;99.90
63875;DHT22;51595;24.180;-110.296;2023-09-19T07:27:57;27.50;99.90
63875;DHT22;51595;24.180;-110.296;2023-09-19T07:30:27;27.40;99.90
63875;DHT22;51595;24.180;-110.296;2023-09-19T07:32:54;27.40;99.90
63875;DHT22;51595;24.180;-110.296;2023-09-19T07:35:20;27.40;99.90
63875;DHT22;51595;24.180;-110.296;2023-09-19T07:37:47;27.40;99.90
63875;DHT22;51595;24.180;-110.296;2023-09-19T07:40:22;27.40;99.90
63875;DHT22;51595;24.180;-110.296;2023-09-19T07:42:49;27.40;99.90
63875;DHT22;51595;24.180;-110.296;2023-09-19T07:45:16;27.50;99.90
63875;DHT22;51595;24.180;-110.296;2023-09-19T07:47:47;27.50;99.90
63875;DHT22;51595;24.180;-110.296;2023-09-19T07:50:15;27.40;99.90
63875;DHT22;51595;24.180;-110.296;2023-09-19T07:52:42;27.40;99.90
63875;DHT22;51595;24.180;-110.296;2023-09-19T07:55:12;27.40;99.90
63875;DHT22;51595;24.180;-110.296;2023-09-19T07:57:43;27.40;99.90
63875;DHT22;51595;24.180;-110.296;2023-09-19T08:00:10;27.30;99.90
63875;DHT22;51595;24.180;-110.296;2023-09-19T08:02:38;27.30;99.90
63875;DHT22;51595;24.180;-110.296;2023-09-19T08:05:09;27.30;99.90
63875;DHT22;51595;24.180;-110.296;2023-09-19T08:07:39;27.30;99.90
63875;DHT22;51595;24.180;-110.296;2023-09-19T08:10:07;27.20;99.90
63875;DHT22;51595;24.180;-110.296;2023-09-19T08:12:34;27.20;99.90
63875;DHT22;51595;24.180;-110.296;2023-09-19T08:15:05;27.20;99.90
63875;DHT22;51595;24.180;-110.296;2023-09-19T08:17:35;27.20;99.90
63875;DHT22;51595;24.180;-110.296;2023-09-19T08:20:02;27.20;99.90
63875;DHT22;51595;24.180;-110.296;2023-09-19T08:22:31;27.20;99.90
63875;DHT22;51595;24.180;-110.296;2023-09-19T08:24:58;27.20;99.90
63875;DHT22;51595;24.180;-110.296;2023-09-19T08:27:25;27.10;99.90
63875;DHT22;51595;24.180;-110.296;2023-09-19T08:29:57;27.10;99.90
63875;DHT22;51595;24.180;-110.296;2023-09-19T08:32:24;27.00;99.90
63875;DHT22;51595;24.180;-110.296;2023-09-19T08:34:51;27.00;99.90
63875;DHT22;51595;24.180;-110.296;2023-09-19T08:37:18;27.00;99.90
63875;DHT22;51595;24.180;-110.296;2023-09-19T08:39:45;27.00;99.90
63875;DHT22;51595;24.180;-110.296;2023-09-19T08:42:12;26.90;99.90
63875;DHT22;51595;24.180;-110.296;2023-09-19T08:44:39;26.80;99.90
63875;DHT22;51595;24.180;-110.296;2023-09-19T08:47:16;26.70;99.90
63875;DHT22;51595;24.180;-110.296;2023-09-19T08:50:04;26.70;99.90
63875;DHT22;51595;24.180;-110.296;2023-09-19T08:52:37;26.70;99.90
63875;DHT22;51595;24.180;-110.296;2023-09-19T08:55:06;26.70;99.90
63875;DHT22;51595;24.180;-110.296;2023-09-19T08:57:36;26.70;99.90
63875;DHT22;51595;24.180;-110.296;2023-09-19T09:00:08;26.80;99.90
63875;DHT22;51595;24.180;-110.296;2023-09-19T09:02:39;26.80;99.90
63875;DHT22;51595;24.180;-110.296;2023-09-19T09:05:08;26.80;99.90
63875;DHT22;51595;24.180;-110.296;2023-09-19T09:07:40;26.80;99.90
63875;DHT22;51595;24.180;-110.296;2023-09-19T09:10:07;26.80;99.90
63875;DHT22;51595;24.180;-110.296;2023-09-19T09:12:35;26.90;99.90
63875;DHT22;51595;24.180;-110.296;2023-09-19T09:15:03;26.90;99.90
63875;DHT22;51595;24.180;-110.296;2023-09-19T09:17:30;26.80;99.90
63875;DHT22;51595;24.180;-110.296;2023-09-19T09:19:57;26.80;99.90
63875;DHT22;51595;24.180;-110.296;2023-09-19T09:22:23;26.70;99.90
63875;DHT22;51595;24.180;-110.296;2023-09-19T09:24:54;26.70;99.90
63875;DHT22;51595;24.180;-110.296;2023-09-19T09:27:24;26.60;99.90
63875;DHT22;51595;24.180;-110.296;2023-09-19T09:29:51;26.70;99.90
63875;DHT22;51595;24.180;-110.296;2023-09-19T09:32:28;26.70;99.90
63875;DHT22;51595;24.180;-110.296;2023-09-19T09:34:57;26.60;99.90
63875;DHT22;51595;24.180;-110.296;2023-09-19T09:37:25;26.70;99.90
63875;DHT22;51595;24.180;-110.296;2023-09-19T09:39:59;26.70;99.90
63875;DHT22;51595;24.180;-110.296;2023-09-19T09:42:45;26.80;99.90
63875;DHT22;51595;24.180;-110.296;2023-09-19T09:47:54;26.90;99.90
63875;DHT22;51595;24.180;-110.296;2023-09-19T09:50:25;26.90;99.90
63875;DHT22;51595;24.180;-110.296;2023-09-19T09:53:26;26.90;99.90
63875;DHT22;51595;24.180;-110.296;2023-09-19T09:58:36;26.80;99.90
63875;DHT22;51595;24.180;-110.296;2023-09-19T10:01:04;26.80;99.90
63875;DHT22;51595;24.180;-110.296;2023-09-19T10:03:41;26.80;99.90
63875;DHT22;51595;24.180;-110.296;2023-09-19T10:06:15;26.80;99.90
63875;DHT22;51595;24.180;-110.296;2023-09-19T10:09:09;26.80;99.90
63875;DHT22;51595;24.180;-110.296;2023-09-19T10:11:42;26.80;99.90
63875;DHT22;51595;24.180;-110.296;2023-09-19T10:14:15;26.70;99.90
63875;DHT22;51595;24.180;-110.296;2023-09-19T10:16:54;26.80;99.90
63875;DHT22;51595;24.180;-110.296;2023-09-19T10:19:58;26.90;99.90
63875;DHT22;51595;24.180;-110.296;2023-09-19T10:22:31;26.90;99.90
63875;DHT22;51595;24.180;-110.296;2023-09-19T10:25:02;26.90;99.90
63875;DHT22;51595;24.180;-110.296;2023-09-19T10:27:33;26.80;99.90
63875;DHT22;51595;24.180;-110.296;2023-09-19T10:30:08;26.80;99.90
63875;DHT22;51595;24.180;-110.296;2023-09-19T10:32:39;26.80;99.90
63875;DHT22;51595;24.180;-110.296;2023-09-19T10:35:07;26.80;99.90
63875;DHT22;51595;24.180;-110.296;2023-09-19T10:37:34;26.80;99.90
63875;DHT22;51595;24.180;-110.296;2023-09-19T10:40:04;26.70;99.90
63875;DHT22;51595;24.180;-110.296;2023-09-19T10:42:38;26.70;99.90
63875;DHT22;51595;24.180;-110.296;2023-09-19T10:45:08;26.70;99.90
63875;DHT22;51595;24.180;-110.296;2023-09-19T10:47:39;26.80;99.90
63875;DHT22;51595;24.180;-110.296;2023-09-19T10:50:06;26.80;99.90
63875;DHT22;51595;24.180;-110.296;2023-09-19T10:52:41;26.80;99.90
63875;DHT22;51595;24.180;-110.296;2023-09-19T10:55:10;26.80;99.90
63875;DHT22;51595;24.180;-110.296;2023-09-19T10:57:44;26.80;99.90
63875;DHT22;51595;24.180;-110.296;2023-09-19T11:00:12;26.80;99.90
63875;DHT22;51595;24.180;-110.296;2023-09-19T11:03:20;26.80;99.90
63875;DHT22;51595;24.180;-110.296;2023-09-19T11:11:41;26.70;99.90
63875;DHT22;51595;24.180;-110.296;2023-09-19T11:14:30;26.60;99.90
63875;DHT22;51595;24.180;-110.296;2023-09-19T11:30:52;26.60;99.90
63875;DHT22;51595;24.180;-110.296;2023-09-19T11:33:22;26.60;99.90
63875;DHT22;51595;24.180;-110.296;2023-09-19T11:36:14;26.60;99.90
63875;DHT22;51595;24.180;-110.296;2023-09-19T11:46:52;26.60;99.90
63875;DHT22;51595;24.180;-110.296;2023-09-19T11:49:29;26.60;99.90
63875;DHT22;51595;24.180;-110.296;2023-09-19T11:51:59;26.50;99.90
63875;DHT22;51595;24.180;-110.296;2023-09-19T11:54:27;26.60;99.90
63875;DHT22;51595;24.180;-110.296;2023-09-19T11:56:58;26.60;99.90
63875;DHT22;51595;24.180;-110.296;2023-09-19T11:59:29;26.80;99.90
63875;DHT22;51595;24.180;-110.296;2023-09-19T12:02:00;26.70;99.90
63875;DHT22;51595;24.180;-110.296;2023-09-19T12:04:40;26.70;99.90
63875;DHT22;51595;24.180;-110.296;2023-09-19T12:07:10;26.70;99.90
63875;DHT22;51595;24.180;-110.296;2023-09-19T12:09:48;26.70;99.90
63875;DHT22;51595;24.180;-110.296;2023-09-19T12:12:26;26.70;99.90
63875;DHT22;51595;24.180;-110.296;2023-09-19T12:14:53;26.70;99.90
63875;DHT22;51595;24.180;-110.296;2023-09-19T12:17:21;26.80;99.90
63875;DHT22;51595;24.180;-110.296;2023-09-19T12:19:55;26.80;99.90
63875;DHT22;51595;24.180;-110.296;2023-09-19T12:22:22;26.80;99.90
63875;DHT22;51595;24.180;-110.296;2023-09-19T12:24:49;26.80;99.90
63875;DHT22;51595;24.180;-110.296;2023-09-19T12:27:17;26.80;99.90
63875;DHT22;51595;24.180;-110.296;2023-09-19T12:29:48;26.90;99.90
63875;DHT22;51595;24.180;-110.296;2023-09-19T12:32:37;27.00;99.90
63875;DHT22;51595;24.180;-110.296;2023-09-19T12:35:09;27.10;99.90
63875;DHT22;51595;24.180;-110.296;2023-09-19T12:37:45;27.20;99.90
63875;DHT22;51595;24.180;-110.296;2023-09-19T12:40:14;27.20;99.90
63875;DHT22;51595;24.180;-110.296;2023-09-19T12:42:44;27.30;99.90
63875;DHT22;51595;24.180;-110.296;2023-09-19T12:45:11;27.30;99.90
63875;DHT22;51595;24.180;-110.296;2023-09-19T12:47:39;27.40;99.90
63875;DHT22;51595;24.180;-110.296;2023-09-19T12:50:13;27.40;99.90
63875;DHT22;51595;24.180;-110.296;2023-09-19T12:52:52;27.40;99.90
63875;DHT22;51595;24.180;-110.296;2023-09-19T12:55:26;27.40;99.90
63875;DHT22;51595;24.180;-110.296;2023-09-19T13:00:52;27.40;99.90
63875;DHT22;51595;24.180;-110.296;2023-09-19T13:05:56;27.40;99.90
63875;DHT22;51595;24.180;-110.296;2023-09-19T13:08:28;27.50;99.90
63875;DHT22;51595;24.180;-110.296;2023-09-19T13:11:04;27.50;99.90
63875;DHT22;51595;24.180;-110.296;2023-09-19T13:13:46;27.60;99.90
63875;DHT22;51595;24.180;-110.296;2023-09-19T13:16:20;27.50;99.90
63875;DHT22;51595;24.180;-110.296;2023-09-19T13:18:54;27.50;99.90
63875;DHT22;51595;24.180;-110.296;2023-09-19T13:21:30;27.40;99.90
63875;DHT22;51595;24.180;-110.296;2023-09-19T13:24:22;27.50;99.90
63875;DHT22;51595;24.180;-110.296;2023-09-19T13:26:51;27.50;99.90
63875;DHT22;51595;24.180;-110.296;2023-09-19T13:29:18;27.60;99.90
63875;DHT22;51595;24.180;-110.296;2023-09-19T13:31:48;27.70;99.90
63875;DHT22;51595;24.180;-110.296;2023-09-19T13:34:16;27.80;99.90
63875;DHT22;51595;24.180;-110.296;2023-09-19T13:36:44;27.90;99.90
63875;DHT22;51595;24.180;-110.296;2023-09-19T13:39:10;28.00;99.90
63875;DHT22;51595;24.180;-110.296;2023-09-19T13:41:39;28.20;99.90
63875;DHT22;51595;24.180;-110.296;2023-09-19T13:44:05;28.30;99.90
63875;DHT22;51595;24.180;-110.296;2023-09-19T13:46:32;28.40;99.90
63875;DHT22;51595;24.180;-110.296;2023-09-19T13:49:01;28.50;99.90
63875;DHT22;51595;24.180;-110.296;2023-09-19T13:51:32;28.60;99.90
63875;DHT22;51595;24.180;-110.296;2023-09-19T13:53:59;28.70;99.90
63875;DHT22;51595;24.180;-110.296;2023-09-19T13:56:28;28.90;99.90
63875;DHT22;51595;24.180;-110.296;2023-09-19T13:58:56;29.00;99.90
63875;DHT22;51595;24.180;-110.296;2023-09-19T14:01:22;29.00;99.90
63875;DHT22;51595;24.180;-110.296;2023-09-19T14:03:49;29.30;99.90
63875;DHT22;51595;24.180;-110.296;2023-09-19T14:06:17;29.30;99.90
63875;DHT22;51595;24.180;-110.296;2023-09-19T14:08:44;29.50;99.90
63875;DHT22;51595;24.180;-110.296;2023-09-19T14:11:15;29.60;99.90
63875;DHT22;51595;24.180;-110.296;2023-09-19T14:13:42;29.60;99.90
63875;DHT22;51595;24.180;-110.296;2023-09-19T14:16:15;29.70;99.90
63875;DHT22;51595;24.180;-110.296;2023-09-19T14:18:42;29.80;99.90
63875;DHT22;51595;24.180;-110.296;2023-09-19T14:21:08;30.00;99.90
63875;DHT22;51595;24.180;-110.296;2023-09-19T14:23:39;30.00;99.90
63875;DHT22;51595;24.180;-110.296;2023-09-19T14:26:07;30.20;99.90
63875;DHT22;51595;24.180;-110.296;2023-09-19T14:28:34;30.30;99.90
63875;DHT22;51595;24.180;-110.296;2023-09-19T14:31:11;30.60;99.90
63875;DHT22;51595;24.180;-110.296;2023-09-19T14:33:38;30.90;99.90
63875;DHT22;51595;24.180;-110.296;2023-09-19T14:36:06;31.00;99.90
63875;DHT22;51595;24.180;-110.296;2023-09-19T14:38:37;31.10;99.90
63875;DHT22;51595;24.180;-110.296;2023-09-19T14:41:05;31.20;99.90
63875;DHT22;51595;24.180;-110.296;2023-09-19T14:43:32;31.20;99.90
63875;DHT22;51595;24.180;-110.296;2023-09-19T14:46:08;31.20;99.90
63875;DHT22;51595;24.180;-110.296;2023-09-19T14:48:36;31.10;99.90
63875;DHT22;51595;24.180;-110.296;2023-09-19T14:51:03;31.10;99.90
63875;DHT22;51595;24.180;-110.296;2023-09-19T14:53:31;31.10;99.90
63875;DHT22;51595;24.180;-110.296;2023-09-19T14:56:01;31.00;99.90
63875;DHT22;51595;24.180;-110.296;2023-09-19T14:58:29;31.00;99.90
63875;DHT22;51595;24.180;-110.296;2023-09-19T15:01:06;30.90;99.90
63875;DHT22;51595;24.180;-110.296;2023-09-19T15:03:34;30.90;99.90
63875;DHT22;51595;24.180;-110.296;2023-09-19T15:06:05;31.00;99.90
63875;DHT22;51595;24.180;-110.296;2023-09-19T15:08:33;31.10;99.90
63875;DHT22;51595;24.180;-110.296;2023-09-19T15:11:10;31.30;99.90
63875;DHT22;51595;24.180;-110.296;2023-09-19T15:13:38;31.70;99.90
63875;DHT22;51595;24.180;-110.296;2023-09-19T15:16:06;31.90;99.90
63875;DHT22;51595;24.180;-110.296;2023-09-19T15:18:37;31.90;99.90
63875;DHT22;51595;24.180;-110.296;2023-09-19T15:21:05;32.00;99.90
63875;DHT22;51595;24.180;-110.296;2023-09-19T15:23:32;32.30;99.90
63875;DHT22;51595;24.180;-110.296;2023-09-19T15:26:04;32.30;99.90
63875;DHT22;51595;24.180;-110.296;2023-09-19T15:28:32;32.50;99.90
63875;DHT22;51595;24.180;-110.296;2023-09-19T15:31:01;32.70;99.90
63875;DHT22;51595;24.180;-110.296;2023-09-19T15:33:28;32.70;99.90
63875;DHT22;51595;24.180;-110.296;2023-09-19T15:36:14;33.00;99.90
63875;DHT22;51595;24.180;-110.296;2023-09-19T15:39:06;33.30;99.90
63875;DHT22;51595;24.180;-110.296;2023-09-19T15:41:34;33.20;99.90
63875;DHT22;51595;24.180;-110.296;2023-09-19T15:44:01;33.10;99.90
63875;DHT22;51595;24.180;-110.296;2023-09-19T15:46:30;33.20;99.90
63875;DHT22;51595;24.180;-110.296;2023-09-19T15:48:57;33.50;99.90
63875;DHT22;51595;24.180;-110.296;2023-09-19T15:51:24;33.60;99.90
63875;DHT22;51595;24.180;-110.296;2023-09-19T15:53:52;33.80;99.90
63875;DHT22;51595;24.180;-110.296;2023-09-19T15:56:20;34.10;99.90
63875;DHT22;51595;24.180;-110.296;2023-09-19T15:58:53;34.30;99.90
63875;DHT22;51595;24.180;-110.296;2023-09-19T16:01:21;34.60;99.90
63875;DHT22;51595;24.180;-110.296;2023-09-19T16:03:48;34.90;99.90